sensor_id;sensor_type;location;lat;lon;timestamp;P1;durP1;ratioP1;P2;durP2;ratioP2
6342;SDS011;3204;42.698;23.298;2023-04-01T00:01:37;30.63;;;19.75;;
6342;SDS011;3204;42.698;23.298;2023-04-01T00:04:03;34.20;;;19.98;;
6342;SDS011;3204;42.698;23.298;2023-04-01T00:06:28;28.73;;;19.13;;
6342;SDS011;3204;42.698;23.298;2023-04-01T00:08:53;26.20;;;18.63;;
6342;SDS011;3204;42.698;23.298;2023-04-01T00:11:19;28.25;;;20.08;;
6342;SDS011;3204;42.698;23.298;2023-04-01T00:13:46;29.60;;;17.60;;
6342;SDS011;3204;42.698;23.298;2023-04-01T00:16:11;26.83;;;17.60;;
6342;SDS011;3204;42.698;23.298;2023-04-01T00:18:38;26.42;;;17.52;;
6342;SDS011;3204;42.698;23.298;2023-04-01T00:21:03;28.98;;;18.00;;
6342;SDS011;3204;42.698;23.298;2023-04-01T00:23:29;24.52;;;16.60;;
6342;SDS011;3204;42.698;23.298;2023-04-01T00:25:54;23.23;;;16.80;;
6342;SDS011;3204;42.698;23.298;2023-04-01T00:28:20;25.42;;;16.77;;
6342;SDS011;3204;42.698;23.298;2023-04-01T00:30:46;23.70;;;16.65;;
6342;SDS011;3204;42.698;23.298;2023-04-01T00:33:12;26.55;;;17.50;;
6342;SDS011;3204;42.698;23.298;2023-04-01T00:35:37;26.47;;;16.37;;
6342;SDS011;3204;42.698;23.298;2023-04-01T00:38:04;27.05;;;16.45;;
6342;SDS011;3204;42.698;23.298;2023-04-01T00:40:34;23.55;;;15.80;;
6342;SDS011;3204;42.698;23.298;2023-04-01T00:43:01;24.10;;;15.07;;
6342;SDS011;3204;42.698;23.298;2023-04-01T00:45:31;19.98;;;14.65;;
6342;SDS011;3204;42.698;23.298;2023-04-01T00:47:56;17.63;;;15.05;;
6342;SDS011;3204;42.698;23.298;2023-04-01T00:50:27;23.70;;;14.07;;
6342;SDS011;3204;42.698;23.298;2023-04-01T00:52:55;23.48;;;14.43;;
6342;SDS011;3204;42.698;23.298;2023-04-01T00:55:21;20.88;;;13.35;;
6342;SDS011;3204;42.698;23.298;2023-04-01T00:57:48;19.05;;;14.38;;
6342;SDS011;3204;42.698;23.298;2023-04-01T01:00:16;18.40;;;13.38;;
6342;SDS011;3204;42.698;23.298;2023-04-01T01:02:43;20.98;;;13.38;;
6342;SDS011;3204;42.698;23.298;2023-04-01T01:05:13;17.05;;;12.60;;
6342;SDS011;3204;42.698;23.298;2023-04-01T01:07:43;18.70;;;13.57;;
6342;SDS011;3204;42.698;23.298;2023-04-01T01:10:29;18.23;;;13.32;;
6342;SDS011;3204;42.698;23.298;2023-04-01T01:13:18;19.92;;;13.15;;
6342;SDS011;3204;42.698;23.298;2023-04-01T01:16:17;17.83;;;13.45;;
6342;SDS011;3204;42.698;23.298;2023-04-01T01:22:20;24.67;;;15.43;;
6342;SDS011;3204;42.698;23.298;2023-04-01T01:25:49;22.70;;;14.73;;
6342;SDS011;3204;42.698;23.298;2023-04-01T01:33:45;19.52;;;14.00;;
6342;SDS011;3204;42.698;23.298;2023-04-01T01:36:20;19.33;;;13.43;;
6342;SDS011;3204;42.698;23.298;2023-04-01T01:38:47;21.55;;;12.50;;
6342;SDS011;3204;42.698;23.298;2023-04-01T01:41:15;14.63;;;11.90;;
6342;SDS011;3204;42.698;23.298;2023-04-01T01:43:43;21.52;;;12.77;;
6342;SDS011;3204;42.698;23.298;2023-04-01T01:46:11;21.33;;;13.20;;
6342;SDS011;3204;42.698;23.298;2023-04-01T01:48:42;24.98;;;13.00;;
6342;SDS011;3204;42.698;23.298;2023-04-01T01:51:10;23.15;;;12.93;;
6342;SDS011;3204;42.698;23.298;2023-04-01T01:53:35;23.95;;;12.70;;
6342;SDS011;3204;42.698;23.298;2023-04-01T01:56:02;23.20;;;14.38;;
6342;SDS011;3204;42.698;23.298;2023-04-01T01:58:32;17.33;;;13.32;;
6342;SDS011;3204;42.698;23.298;2023-04-01T02:01:06;21.70;;;14.27;;
6342;SDS011;3204;42.698;23.298;2023-04-01T02:03:35;21.70;;;13.38;;
6342;SDS011;3204;42.698;23.298;2023-04-01T02:06:03;21.45;;;13.15;;
6342;SDS011;3204;42.698;23.298;2023-04-01T02:08:34;35.88;;;14.32;;
6342;SDS011;3204;42.698;23.298;2023-04-01T02:11:08;23.00;;;13.52;;
6342;SDS011;3204;42.698;23.298;2023-04-01T02:16:16;27.13;;;13.38;;
6342;SDS011;3204;42.698;23.298;2023-04-01T02:18:48;18.42;;;13.05;;
6342;SDS011;3204;42.698;23.298;2023-04-01T02:21:18;20.60;;;11.60;;
6342;SDS011;3204;42.698;23.298;2023-04-01T02:23:45;17.98;;;12.00;;
6342;SDS011;3204;42.698;23.298;2023-04-01T02:26:12;22.25;;;12.82;;
6342;SDS011;3204;42.698;23.298;2023-04-01T02:28:39;22.15;;;12.55;;
6342;SDS011;3204;42.698;23.298;2023-04-01T02:31:07;23.70;;;12.32;;
6342;SDS011;3204;42.698;23.298;2023-04-01T02:33:35;22.98;;;12.65;;
6342;SDS011;3204;42.698;23.298;2023-04-01T02:36:03;27.65;;;13.40;;
6342;SDS011;3204;42.698;23.298;2023-04-01T02:38:29;20.45;;;11.65;;
6342;SDS011;3204;42.698;23.298;2023-04-01T02:40:59;19.80;;;11.40;;
6342;SDS011;3204;42.698;23.298;2023-04-01T02:43:26;30.50;;;14.43;;
6342;SDS011;3204;42.698;23.298;2023-04-01T02:45:52;27.95;;;14.02;;
6342;SDS011;3204;42.698;23.298;2023-04-01T02:48:18;18.08;;;13.05;;
6342;SDS011;3204;42.698;23.298;2023-04-01T02:50:43;32.60;;;15.55;;
6342;SDS011;3204;42.698;23.298;2023-04-01T02:53:08;27.33;;;13.82;;
6342;SDS011;3204;42.698;23.298;2023-04-01T02:55:34;28.50;;;12.55;;
6342;SDS011;3204;42.698;23.298;2023-04-01T02:58:00;17.67;;;12.00;;
6342;SDS011;3204;42.698;23.298;2023-04-01T03:00:26;16.63;;;12.13;;
6342;SDS011;3204;42.698;23.298;2023-04-01T03:02:51;24.98;;;13.15;;
6342;SDS011;3204;42.698;23.298;2023-04-01T03:05:17;22.65;;;13.52;;
6342;SDS011;3204;42.698;23.298;2023-04-01T03:07:44;25.95;;;14.50;;
6342;SDS011;3204;42.698;23.298;2023-04-01T03:10:10;25.77;;;15.32;;
6342;SDS011;3204;42.698;23.298;2023-04-01T03:12:36;25.45;;;15.30;;
6342;SDS011;3204;42.698;23.298;2023-04-01T03:15:01;27.95;;;15.10;;
6342;SDS011;3204;42.698;23.298;2023-04-01T03:17:27;19.52;;;14.80;;
6342;SDS011;3204;42.698;23.298;2023-04-01T03:19:53;28.75;;;16.77;;
6342;SDS011;3204;42.698;23.298;2023-04-01T03:22:18;30.20;;;16.65;;
6342;SDS011;3204;42.698;23.298;2023-04-01T03:24:46;31.92;;;16.63;;
6342;SDS011;3204;42.698;23.298;2023-04-01T03:27:15;29.85;;;17.25;;
6342;SDS011;3204;42.698;23.298;2023-04-01T03:29:40;29.23;;;18.05;;
6342;SDS011;3204;42.698;23.298;2023-04-01T03:32:06;26.52;;;16.85;;
6342;SDS011;3204;42.698;23.298;2023-04-01T03:34:31;21.58;;;14.45;;
6342;SDS011;3204;42.698;23.298;2023-04-01T03:36:57;24.95;;;16.20;;
6342;SDS011;3204;42.698;23.298;2023-04-01T03:39:23;27.73;;;16.20;;
6342;SDS011;3204;42.698;23.298;2023-04-01T03:41:48;23.60;;;15.65;;
6342;SDS011;3204;42.698;23.298;2023-04-01T03:44:14;29.77;;;16.88;;
6342;SDS011;3204;42.698;23.298;2023-04-01T03:46:40;26.08;;;15.45;;
6342;SDS011;3204;42.698;23.298;2023-04-01T03:49:09;21.73;;;15.57;;
6342;SDS011;3204;42.698;23.298;2023-04-01T03:51:38;21.20;;;14.48;;
6342;SDS011;3204;42.698;23.298;2023-04-01T03:54:04;20.50;;;13.18;;
6342;SDS011;3204;42.698;23.298;2023-04-01T03:56:31;17.52;;;13.32;;
6342;SDS011;3204;42.698;23.298;2023-04-01T03:58:56;17.20;;;13.20;;
6342;SDS011;3204;42.698;23.298;2023-04-01T04:01:22;23.13;;;13.25;;
6342;SDS011;3204;42.698;23.298;2023-04-01T04:03:48;31.30;;;16.60;;
6342;SDS011;3204;42.698;23.298;2023-04-01T04:06:14;33.70;;;15.63;;
6342;SDS011;3204;42.698;23.298;2023-04-01T04:08:41;26.83;;;16.40;;
6342;SDS011;3204;42.698;23.298;2023-04-01T04:11:07;27.83;;;16.80;;
6342;SDS011;3204;42.698;23.298;2023-04-01T04:13:32;35.70;;;20.30;;
6342;SDS011;3204;42.698;23.298;2023-04-01T04:15:58;23.60;;;14.77;;
6342;SDS011;3204;42.698;23.298;2023-04-01T04:18:24;25.83;;;15.60;;
6342;SDS011;3204;42.698;23.298;2023-04-01T04:20:49;18.97;;;13.50;;
6342;SDS011;3204;42.698;23.298;2023-04-01T04:23:16;20.58;;;13.85;;
6342;SDS011;3204;42.698;23.298;2023-04-01T04:25:59;20.50;;;13.50;;
6342;SDS011;3204;42.698;23.298;2023-04-01T04:28:30;17.92;;;12.32;;
6342;SDS011;3204;42.698;23.298;2023-04-01T04:30:56;20.27;;;12.88;;
6342;SDS011;3204;42.698;23.298;2023-04-01T04:33:22;20.67;;;13.65;;
6342;SDS011;3204;42.698;23.298;2023-04-01T04:35:49;16.57;;;12.07;;
6342;SDS011;3204;42.698;23.298;2023-04-01T04:38:15;21.52;;;13.15;;
6342;SDS011;3204;42.698;23.298;2023-04-01T04:40:41;26.37;;;14.17;;
6342;SDS011;3204;42.698;23.298;2023-04-01T04:43:07;19.20;;;12.83;;
6342;SDS011;3204;42.698;23.298;2023-04-01T04:45:36;18.98;;;12.38;;
6342;SDS011;3204;42.698;23.298;2023-04-01T04:48:01;25.42;;;14.20;;
6342;SDS011;3204;42.698;23.298;2023-04-01T04:50:27;23.08;;;14.10;;
6342;SDS011;3204;42.698;23.298;2023-04-01T04:52:52;27.65;;;15.05;;
6342;SDS011;3204;42.698;23.298;2023-04-01T04:55:18;25.20;;;15.50;;
6342;SDS011;3204;42.698;23.298;2023-04-01T04:57:44;20.75;;;13.15;;
6342;SDS011;3204;42.698;23.298;2023-04-01T05:00:10;24.75;;;13.30;;
6342;SDS011;3204;42.698;23.298;2023-04-01T05:02:36;23.35;;;14.35;;
6342;SDS011;3204;42.698;23.298;2023-04-01T05:05:01;25.90;;;14.48;;
6342;SDS011;3204;42.698;23.298;2023-04-01T05:07:27;22.42;;;13.77;;
6342;SDS011;3204;42.698;23.298;2023-04-01T05:09:52;26.98;;;13.85;;
6342;SDS011;3204;42.698;23.298;2023-04-01T05:12:17;30.95;;;13.52;;
6342;SDS011;3204;42.698;23.298;2023-04-01T05:14:43;18.38;;;13.00;;
6342;SDS011;3204;42.698;23.298;2023-04-01T05:17:09;21.70;;;12.98;;
6342;SDS011;3204;42.698;23.298;2023-04-01T05:19:36;30.98;;;13.25;;
6342;SDS011;3204;42.698;23.298;2023-04-01T05:22:02;23.73;;;12.27;;
6342;SDS011;3204;42.698;23.298;2023-04-01T05:24:27;14.18;;;11.80;;
6342;SDS011;3204;42.698;23.298;2023-04-01T05:26:53;21.35;;;11.18;;
6342;SDS011;3204;42.698;23.298;2023-04-01T05:29:19;16.17;;;10.98;;
6342;SDS011;3204;42.698;23.298;2023-04-01T05:31:44;20.35;;;11.57;;
6342;SDS011;3204;42.698;23.298;2023-04-01T05:34:09;20.25;;;11.63;;
6342;SDS011;3204;42.698;23.298;2023-04-01T05:36:35;23.60;;;12.32;;
6342;SDS011;3204;42.698;23.298;2023-04-01T05:39:01;19.65;;;11.32;;
6342;SDS011;3204;42.698;23.298;2023-04-01T05:41:28;20.23;;;10.63;;
6342;SDS011;3204;42.698;23.298;2023-04-01T05:43:53;23.83;;;10.65;;
6342;SDS011;3204;42.698;23.298;2023-04-01T05:46:19;17.75;;;10.18;;
6342;SDS011;3204;42.698;23.298;2023-04-01T05:48:44;13.55;;;9.98;;
6342;SDS011;3204;42.698;23.298;2023-04-01T05:51:13;12.75;;;8.85;;
6342;SDS011;3204;42.698;23.298;2023-04-01T05:53:40;12.60;;;8.55;;
6342;SDS011;3204;42.698;23.298;2023-04-01T05:56:06;8.07;;;7.25;;
6342;SDS011;3204;42.698;23.298;2023-04-01T05:58:34;8.25;;;7.40;;
6342;SDS011;3204;42.698;23.298;2023-04-01T06:01:03;7.85;;;6.95;;
6342;SDS011;3204;42.698;23.298;2023-04-01T06:03:30;16.45;;;7.53;;
6342;SDS011;3204;42.698;23.298;2023-04-01T06:05:56;7.63;;;6.82;;
6342;SDS011;3204;42.698;23.298;2023-04-01T06:08:21;18.92;;;11.77;;
6342;SDS011;3204;42.698;23.298;2023-04-01T06:10:56;10.13;;;7.13;;
6342;SDS011;3204;42.698;23.298;2023-04-01T06:13:52;11.13;;;7.85;;
6342;SDS011;3204;42.698;23.298;2023-04-01T06:22:16;8.15;;;6.60;;
6342;SDS011;3204;42.698;23.298;2023-04-01T06:38:27;13.50;;;5.70;;
6342;SDS011;3204;42.698;23.298;2023-04-01T06:46:16;6.82;;;6.18;;
6342;SDS011;3204;42.698;23.298;2023-04-01T06:48:59;7.72;;;6.35;;
6342;SDS011;3204;42.698;23.298;2023-04-01T06:54:16;12.57;;;6.30;;
6342;SDS011;3204;42.698;23.298;2023-04-01T06:56:53;10.00;;;5.65;;
6342;SDS011;3204;42.698;23.298;2023-04-01T06:59:26;6.50;;;5.70;;
6342;SDS011;3204;42.698;23.298;2023-04-01T07:01:57;7.88;;;6.65;;
6342;SDS011;3204;42.698;23.298;2023-04-01T07:04:28;7.35;;;5.68;;
6342;SDS011;3204;42.698;23.298;2023-04-01T07:06:58;6.15;;;5.50;;
6342;SDS011;3204;42.698;23.298;2023-04-01T07:09:28;8.15;;;6.47;;
6342;SDS011;3204;42.698;23.298;2023-04-01T07:12:03;10.05;;;6.03;;
6342;SDS011;3204;42.698;23.298;2023-04-01T07:14:39;11.10;;;5.80;;
6342;SDS011;3204;42.698;23.298;2023-04-01T07:17:12;9.60;;;5.88;;
6342;SDS011;3204;42.698;23.298;2023-04-01T07:19:50;6.82;;;6.18;;
6342;SDS011;3204;42.698;23.298;2023-04-01T07:22:33;7.78;;;5.82;;
6342;SDS011;3204;42.698;23.298;2023-04-01T07:25:04;8.88;;;5.93;;
6342;SDS011;3204;42.698;23.298;2023-04-01T07:27:36;8.27;;;6.38;;
6342;SDS011;3204;42.698;23.298;2023-04-01T07:30:03;8.82;;;6.35;;
6342;SDS011;3204;42.698;23.298;2023-04-01T07:33:25;9.10;;;6.32;;
6342;SDS011;3204;42.698;23.298;2023-04-01T07:35:24;9.52;;;6.18;;
6342;SDS011;3204;42.698;23.298;2023-04-01T07:40:43;13.50;;;6.13;;
6342;SDS011;3204;42.698;23.298;2023-04-01T07:43:35;9.00;;;7.75;;
6342;SDS011;3204;42.698;23.298;2023-04-01T07:48:44;7.28;;;6.50;;
6342;SDS011;3204;42.698;23.298;2023-04-01T07:51:26;8.88;;;6.20;;
6342;SDS011;3204;42.698;23.298;2023-04-01T07:56:33;10.57;;;6.10;;
6342;SDS011;3204;42.698;23.298;2023-04-01T08:07:59;9.55;;;7.20;;
6342;SDS011;3204;42.698;23.298;2023-04-01T08:10:11;6.72;;;6.10;;
6342;SDS011;3204;42.698;23.298;2023-04-01T08:15:55;12.18;;;6.38;;
6342;SDS011;3204;42.698;23.298;2023-04-01T08:24:08;10.70;;;7.20;;
6342;SDS011;3204;42.698;23.298;2023-04-01T08:26:43;12.93;;;7.55;;
6342;SDS011;3204;42.698;23.298;2023-04-01T08:31:51;7.03;;;6.30;;
6342;SDS011;3204;42.698;23.298;2023-04-01T08:34:24;13.57;;;5.97;;
6342;SDS011;3204;42.698;23.298;2023-04-01T08:37:06;9.38;;;7.82;;
6342;SDS011;3204;42.698;23.298;2023-04-01T08:39:39;8.40;;;6.95;;
6342;SDS011;3204;42.698;23.298;2023-04-01T08:58:37;7.60;;;5.65;;
6342;SDS011;3204;42.698;23.298;2023-04-01T09:12:36;7.82;;;4.10;;
6342;SDS011;3204;42.698;23.298;2023-04-01T09:18:06;5.93;;;3.80;;
6342;SDS011;3204;42.698;23.298;2023-04-01T10:12:08;4.30;;;3.78;;
6342;SDS011;3204;42.698;23.298;2023-04-01T10:20:12;5.22;;;3.78;;
6342;SDS011;3204;42.698;23.298;2023-04-01T10:28:32;4.60;;;3.20;;
6342;SDS011;3204;42.698;23.298;2023-04-01T10:33:50;9.75;;;3.50;;
6342;SDS011;3204;42.698;23.298;2023-04-01T10:44:34;8.85;;;4.57;;
6342;SDS011;3204;42.698;23.298;2023-04-01T10:52:51;5.38;;;4.35;;
6342;SDS011;3204;42.698;23.298;2023-04-01T10:58:30;7.95;;;4.57;;
6342;SDS011;3204;42.698;23.298;2023-04-01T11:43:37;4.18;;;2.75;;
6342;SDS011;3204;42.698;23.298;2023-04-01T11:46:18;4.40;;;4.00;;
6342;SDS011;3204;42.698;23.298;2023-04-01T11:57:46;5.32;;;4.32;;
6342;SDS011;3204;42.698;23.298;2023-04-01T12:03:26;6.60;;;4.78;;
6342;SDS011;3204;42.698;23.298;2023-04-01T12:17:46;6.43;;;5.80;;
6342;SDS011;3204;42.698;23.298;2023-04-01T12:23:16;11.10;;;4.78;;
6342;SDS011;3204;42.698;23.298;2023-04-01T12:26:35;4.55;;;4.00;;
6342;SDS011;3204;42.698;23.298;2023-04-01T12:29:41;4.95;;;4.40;;
6342;SDS011;3204;42.698;23.298;2023-04-01T12:35:30;4.05;;;3.85;;
6342;SDS011;3204;42.698;23.298;2023-04-01T12:37:59;4.85;;;4.45;;
6342;SDS011;3204;42.698;23.298;2023-04-01T12:46:39;3.90;;;3.55;;
6342;SDS011;3204;42.698;23.298;2023-04-01T12:49:22;4.55;;;4.25;;
6342;SDS011;3204;42.698;23.298;2023-04-01T12:55:07;5.68;;;5.20;;
6342;SDS011;3204;42.698;23.298;2023-04-01T12:57:46;5.38;;;4.95;;
6342;SDS011;3204;42.698;23.298;2023-04-01T13:11:20;6.22;;;5.82;;
6342;SDS011;3204;42.698;23.298;2023-04-01T13:16:54;7.32;;;6.65;;
6342;SDS011;3204;42.698;23.298;2023-04-01T13:19:21;7.93;;;6.50;;
6342;SDS011;3204;42.698;23.298;2023-04-01T13:21:59;8.68;;;6.28;;
6342;SDS011;3204;42.698;23.298;2023-04-01T13:33:04;4.50;;;4.22;;
6342;SDS011;3204;42.698;23.298;2023-04-01T13:36:03;3.80;;;3.50;;
6342;SDS011;3204;42.698;23.298;2023-04-01T13:41:46;4.53;;;4.15;;
6342;SDS011;3204;42.698;23.298;2023-04-01T13:44:38;4.00;;;3.75;;
6342;SDS011;3204;42.698;23.298;2023-04-01T14:09:48;2.30;;;2.20;;
6342;SDS011;3204;42.698;23.298;2023-04-01T14:15:17;1.90;;;1.80;;
6342;SDS011;3204;42.698;23.298;2023-04-01T14:31:34;2.30;;;2.10;;
6342;SDS011;3204;42.698;23.298;2023-04-01T14:50:52;2.25;;;2.03;;
6342;SDS011;3204;42.698;23.298;2023-04-01T14:55:49;1.88;;;1.77;;
6342;SDS011;3204;42.698;23.298;2023-04-01T14:58:18;4.00;;;2.67;;
6342;SDS011;3204;42.698;23.298;2023-04-01T15:00:54;4.65;;;4.25;;
6342;SDS011;3204;42.698;23.298;2023-04-01T15:03:36;4.40;;;4.00;;
6342;SDS011;3204;42.698;23.298;2023-04-01T15:06:15;5.50;;;5.10;;
6342;SDS011;3204;42.698;23.298;2023-04-01T15:29:40;4.68;;;4.35;;
6342;SDS011;3204;42.698;23.298;2023-04-01T15:34:58;4.43;;;4.13;;
6342;SDS011;3204;42.698;23.298;2023-04-01T15:38:20;5.10;;;3.90;;
6342;SDS011;3204;42.698;23.298;2023-04-01T15:43:15;4.65;;;3.40;;
6342;SDS011;3204;42.698;23.298;2023-04-01T16:03:02;3.70;;;3.40;;
6342;SDS011;3204;42.698;23.298;2023-04-01T16:21:35;5.03;;;4.57;;
6342;SDS011;3204;42.698;23.298;2023-04-01T16:24:17;3.45;;;3.22;;
6342;SDS011;3204;42.698;23.298;2023-04-01T16:27:10;4.03;;;3.60;;
6342;SDS011;3204;42.698;23.298;2023-04-01T16:29:48;5.13;;;4.73;;
6342;SDS011;3204;42.698;23.298;2023-04-01T16:37:55;4.80;;;4.40;;
6342;SDS011;3204;42.698;23.298;2023-04-01T16:40:40;6.37;;;5.87;;
6342;SDS011;3204;42.698;23.298;2023-04-01T16:51:16;4.90;;;4.60;;
6342;SDS011;3204;42.698;23.298;2023-04-01T16:56:41;4.67;;;4.47;;
6342;SDS011;3204;42.698;23.298;2023-04-01T17:04:24;3.60;;;3.40;;
6342;SDS011;3204;42.698;23.298;2023-04-01T17:06:58;3.70;;;3.40;;
6342;SDS011;3204;42.698;23.298;2023-04-01T17:09:48;3.40;;;3.20;;
6342;SDS011;3204;42.698;23.298;2023-04-01T17:12:44;4.10;;;3.90;;
6342;SDS011;3204;42.698;23.298;2023-04-01T17:15:27;3.38;;;3.17;;
6342;SDS011;3204;42.698;23.298;2023-04-01T17:23:51;3.33;;;3.13;;
6342;SDS011;3204;42.698;23.298;2023-04-01T17:31:38;3.97;;;3.77;;
6342;SDS011;3204;42.698;23.298;2023-04-01T17:37:11;4.80;;;4.40;;
6342;SDS011;3204;42.698;23.298;2023-04-01T17:39:55;4.30;;;4.10;;
6342;SDS011;3204;42.698;23.298;2023-04-01T17:48:45;4.23;;;4.03;;
6342;SDS011;3204;42.698;23.298;2023-04-01T17:56:17;3.60;;;3.40;;
6342;SDS011;3204;42.698;23.298;2023-04-01T18:04:30;3.58;;;3.38;;
6342;SDS011;3204;42.698;23.298;2023-04-01T18:07:16;3.80;;;3.60;;
6342;SDS011;3204;42.698;23.298;2023-04-01T18:18:30;3.00;;;2.90;;
6342;SDS011;3204;42.698;23.298;2023-04-01T18:23:47;3.10;;;3.00;;
6342;SDS011;3204;42.698;23.298;2023-04-01T18:26:27;3.37;;;3.27;;
6342;SDS011;3204;42.698;23.298;2023-04-01T18:28:57;3.20;;;3.10;;
6342;SDS011;3204;42.698;23.298;2023-04-01T18:31:36;3.87;;;3.70;;
6342;SDS011;3204;42.698;23.298;2023-04-01T18:34:16;4.90;;;4.70;;
6342;SDS011;3204;42.698;23.298;2023-04-01T18:37:10;4.17;;;3.97;;
6342;SDS011;3204;42.698;23.298;2023-04-01T18:39:42;3.43;;;3.33;;
6342;SDS011;3204;42.698;23.298;2023-04-01T18:45:20;3.40;;;3.30;;
6342;SDS011;3204;42.698;23.298;2023-04-01T18:48:06;4.57;;;4.27;;
6342;SDS011;3204;42.698;23.298;2023-04-01T18:50:45;3.57;;;3.37;;
6342;SDS011;3204;42.698;23.298;2023-04-01T18:56:04;3.50;;;3.33;;
6342;SDS011;3204;42.698;23.298;2023-04-01T18:58:34;4.17;;;3.90;;
6342;SDS011;3204;42.698;23.298;2023-04-01T19:04:12;2.97;;;2.87;;
6342;SDS011;3204;42.698;23.298;2023-04-01T19:06:49;2.80;;;2.70;;
6342;SDS011;3204;42.698;23.298;2023-04-01T19:09:31;2.70;;;2.60;;
6342;SDS011;3204;42.698;23.298;2023-04-01T19:22:58;4.80;;;4.50;;
6342;SDS011;3204;42.698;23.298;2023-04-01T19:25:43;2.87;;;2.70;;
6342;SDS011;3204;42.698;23.298;2023-04-01T19:28:20;3.17;;;3.00;;
6342;SDS011;3204;42.698;23.298;2023-04-01T19:30:57;3.00;;;2.90;;
6342;SDS011;3204;42.698;23.298;2023-04-01T19:36:52;3.42;;;3.33;;
6342;SDS011;3204;42.698;23.298;2023-04-01T19:42:33;2.57;;;2.40;;
6342;SDS011;3204;42.698;23.298;2023-04-01T19:48:05;5.35;;;5.03;;
6342;SDS011;3204;42.698;23.298;2023-04-01T19:51:07;3.80;;;3.60;;
6342;SDS011;3204;42.698;23.298;2023-04-01T19:54:41;3.90;;;3.70;;
6342;SDS011;3204;42.698;23.298;2023-04-01T19:56:51;3.70;;;3.50;;
6342;SDS011;3204;42.698;23.298;2023-04-01T19:59:21;4.30;;;4.00;;
6342;SDS011;3204;42.698;23.298;2023-04-01T20:04:37;3.70;;;3.50;;
6342;SDS011;3204;42.698;23.298;2023-04-01T20:07:09;3.70;;;3.50;;
6342;SDS011;3204;42.698;23.298;2023-04-01T20:09:54;3.47;;;3.17;;
6342;SDS011;3204;42.698;23.298;2023-04-01T20:12:46;4.70;;;4.40;;
6342;SDS011;3204;42.698;23.298;2023-04-01T20:15:33;4.43;;;4.20;;
6342;SDS011;3204;42.698;23.298;2023-04-01T20:21:54;3.83;;;3.60;;
6342;SDS011;3204;42.698;23.298;2023-04-01T20:27:08;3.53;;;3.33;;
6342;SDS011;3204;42.698;23.298;2023-04-01T20:35:07;4.13;;;3.83;;
6342;SDS011;3204;42.698;23.298;2023-04-01T20:46:18;2.37;;;2.27;;
6342;SDS011;3204;42.698;23.298;2023-04-01T20:48:59;2.27;;;2.17;;
6342;SDS011;3204;42.698;23.298;2023-04-01T20:51:51;3.20;;;3.00;;
6342;SDS011;3204;42.698;23.298;2023-04-01T20:57:09;2.55;;;2.45;;
6342;SDS011;3204;42.698;23.298;2023-04-01T21:02:25;2.87;;;2.77;;
6342;SDS011;3204;42.698;23.298;2023-04-01T21:08:16;2.57;;;2.47;;
6342;SDS011;3204;42.698;23.298;2023-04-01T21:11:08;2.30;;;2.17;;
6342;SDS011;3204;42.698;23.298;2023-04-01T21:13:58;3.38;;;2.25;;
6342;SDS011;3204;42.698;23.298;2023-04-01T21:16:49;2.13;;;1.90;;
6342;SDS011;3204;42.698;23.298;2023-04-01T21:22:14;2.87;;;2.67;;
6342;SDS011;3204;42.698;23.298;2023-04-01T21:30:44;1.77;;;1.67;;
6342;SDS011;3204;42.698;23.298;2023-04-01T21:36:52;1.93;;;1.83;;
6342;SDS011;3204;42.698;23.298;2023-04-01T22:00:19;1.70;;;1.60;;
6342;SDS011;3204;42.698;23.298;2023-04-01T22:05:38;1.67;;;1.57;;
6342;SDS011;3204;42.698;23.298;2023-04-01T22:13:53;3.67;;;3.33;;
6342;SDS011;3204;42.698;23.298;2023-04-01T22:16:29;4.97;;;3.50;;
6342;SDS011;3204;42.698;23.298;2023-04-01T22:21:51;2.37;;;2.17;;
6342;SDS011;3204;42.698;23.298;2023-04-01T22:24:36;3.23;;;2.00;;
6342;SDS011;3204;42.698;23.298;2023-04-01T22:29:43;1.92;;;1.80;;
6342;SDS011;3204;42.698;23.298;2023-04-01T22:32:24;2.10;;;2.00;;
6342;SDS011;3204;42.698;23.298;2023-04-01T22:38:45;1.93;;;1.83;;
6342;SDS011;3204;42.698;23.298;2023-04-01T22:43:43;2.00;;;1.90;;
6342;SDS011;3204;42.698;23.298;2023-04-01T22:51:45;1.80;;;1.70;;
6342;SDS011;3204;42.698;23.298;2023-04-01T22:56:52;1.90;;;1.80;;
6342;SDS011;3204;42.698;23.298;2023-04-01T22:59:24;1.70;;;1.60;;
6342;SDS011;3204;42.698;23.298;2023-04-01T23:02:15;1.60;;;1.50;;
6342;SDS011;3204;42.698;23.298;2023-04-01T23:04:45;2.10;;;2.00;;
6342;SDS011;3204;42.698;23.298;2023-04-01T23:10:22;2.60;;;2.40;;
6342;SDS011;3204;42.698;23.298;2023-04-01T23:12:53;4.37;;;2.17;;
6342;SDS011;3204;42.698;23.298;2023-04-01T23:15:23;2.10;;;2.00;;
6342;SDS011;3204;42.698;23.298;2023-04-01T23:23:25;1.77;;;1.67;;
6342;SDS011;3204;42.698;23.298;2023-04-01T23:26:06;2.20;;;2.00;;
6342;SDS011;3204;42.698;23.298;2023-04-01T23:28:44;2.07;;;1.70;;
6342;SDS011;3204;42.698;23.298;2023-04-01T23:33:56;2.20;;;2.00;;
6342;SDS011;3204;42.698;23.298;2023-04-01T23:36:24;3.38;;;2.05;;
6342;SDS011;3204;42.698;23.298;2023-04-01T23:38:50;3.10;;;2.47;;
6342;SDS011;3204;42.698;23.298;2023-04-01T23:41:18;3.20;;;2.93;;
6342;SDS011;3204;42.698;23.298;2023-04-01T23:43:49;3.73;;;2.83;;
6342;SDS011;3204;42.698;23.298;2023-04-01T23:46:20;2.17;;;1.97;;
6342;SDS011;3204;42.698;23.298;2023-04-01T23:48:46;1.90;;;1.80;;
6342;SDS011;3204;42.698;23.298;2023-04-01T23:53:44;2.17;;;1.97;;
6342;SDS011;3204;42.698;23.298;2023-04-01T23:56:11;2.47;;;1.30;;
